createdAt,value
2018-11-07T00:00:45.900Z,100037.39
2018-11-07T00:03:15.151Z,100035.19
2018-11-07T00:05:45.160Z,100035.74
2018-11-07T00:08:15.323Z,100030.14
2018-11-07T00:10:47.820Z,100034.44
2018-11-07T00:13:18.387Z,100043.30
2018-11-07T00:15:47.834Z,100043.70
2018-11-07T00:18:17.401Z,100052.03
2018-11-07T00:20:47.367Z,100052.48
2018-11-07T00:23:16.976Z,100054.86
2018-11-07T00:25:46.664Z,100056.02
2018-11-07T00:28:16.572Z,100055.01
2018-11-07T00:30:45.999Z,100048.81
2018-11-07T00:33:15.203Z,100044.58
2018-11-07T00:35:49.403Z,100049.12
2018-11-07T00:38:18.761Z,100052.39
2018-11-07T00:40:58.153Z,100058.19
2018-11-07T00:43:27.787Z,100060.87
2018-11-07T00:45:57.055Z,100058.98
2018-11-07T00:48:26.418Z,100059.05
2018-11-07T00:50:56.116Z,100048.28
2018-11-07T00:53:25.672Z,100045.93
2018-11-07T00:55:55.138Z,100042.09
2018-11-07T00:58:24.815Z,100046.97
2018-11-07T01:00:54.132Z,100037.19
2018-11-07T01:03:23.375Z,100048.89
2018-11-07T01:05:53.593Z,100051.06
2018-11-07T01:08:22.929Z,100048.68
2018-11-07T01:10:52.246Z,100047.58
2018-11-07T01:13:21.802Z,100060.42
2018-11-07T01:15:51.209Z,100060.08
2018-11-07T01:18:20.752Z,100065.33
2018-11-07T01:20:50.921Z,100066.60
2018-11-07T01:23:20.573Z,100064.78
2018-11-07T01:25:50.235Z,100073.41
2018-11-07T01:28:23.483Z,100074.63
2018-11-07T01:30:53.434Z,100073.41
2018-11-07T01:33:23.174Z,100071.37
2018-11-07T01:35:53.171Z,100069.05
2018-11-07T01:38:22.924Z,100074.78
2018-11-07T01:40:52.929Z,100064.37
2018-11-07T01:44:25.090Z,100059.05
2018-11-07T01:46:54.694Z,100053.53
2018-11-07T01:49:24.677Z,100053.89
2018-11-07T01:51:54.499Z,100046.63
2018-11-07T01:54:23.941Z,100049.92
2018-11-07T01:56:53.979Z,100043.81
2018-11-07T01:59:24.291Z,100042.05
2018-11-07T02:01:54.101Z,100036.80
2018-11-07T02:04:23.913Z,100034.64
2018-11-07T02:06:53.552Z,100030.55
2018-11-07T02:09:27.111Z,100029.79
2018-11-07T02:11:58.311Z,100029.79
2018-11-07T02:14:27.856Z,100028.29
2018-11-07T02:16:57.167Z,100027.42
2018-11-07T02:19:37.185Z,100028.13
2018-11-07T02:22:07.595Z,100032.22
2018-11-07T02:24:36.475Z,100031.10
2018-11-07T02:27:05.535Z,100032.57
2018-11-07T02:29:34.718Z,100033.08
2018-11-07T02:32:04.390Z,100039.73
2018-11-07T02:34:33.281Z,100033.17
2018-11-07T02:37:02.538Z,100023.99
2018-11-07T02:39:35.006Z,100022.68
2018-11-07T02:42:08.700Z,100031.10
2018-11-07T02:44:37.524Z,100032.41
2018-11-07T02:49:41.789Z,100039.63
2018-11-07T02:52:10.644Z,100036.20
2018-11-07T02:54:39.904Z,100033.74
2018-11-07T02:57:08.750Z,100031.25
2018-11-07T02:59:37.610Z,100037.81
2018-11-07T03:02:06.947Z,100031.79
2018-11-07T03:04:35.812Z,100045.23
2018-11-07T03:07:04.855Z,100049.67
2018-11-07T03:09:34.133Z,100043.28
2018-11-07T03:12:05.610Z,100056.67
2018-11-07T03:14:34.515Z,100062.80
2018-11-07T03:17:04.503Z,100058.13
2018-11-07T03:19:33.440Z,100052.31
2018-11-07T03:22:03.230Z,100047.45
2018-11-07T03:24:32.506Z,100040.09
2018-11-07T03:27:02.117Z,100037.31
2018-11-07T03:29:30.998Z,100040.11
2018-11-07T03:32:00.223Z,100038.18
2018-11-07T03:34:29.145Z,100041.51
2018-11-07T03:36:57.970Z,100040.79
2018-11-07T03:39:28.827Z,100044.81
2018-11-07T03:41:57.766Z,100044.95
2018-11-07T03:44:26.669Z,100047.12
2018-11-07T03:46:55.862Z,100051.76
2018-11-07T03:49:24.727Z,100046.66
2018-11-07T03:51:58.955Z,100043.41
2018-11-07T03:54:28.191Z,100047.42
2018-11-07T03:56:57.119Z,100035.56
2018-11-07T03:59:26.010Z,100034.74
2018-11-07T04:01:56.137Z,100032.18
2018-11-07T04:04:25.148Z,100028.25
2018-11-07T04:06:54.112Z,100032.35
2018-11-07T04:09:23.319Z,100032.27
2018-11-07T04:11:52.263Z,100023.11
2018-11-07T04:14:21.164Z,100022.20
2018-11-07T04:16:50.356Z,100024.73
2018-11-07T04:19:19.285Z,100017.78
2018-11-07T04:21:48.139Z,100019.94
2018-11-07T04:24:17.396Z,100026.34
2018-11-07T04:26:46.309Z,100027.43
2018-11-07T04:29:15.155Z,100032.35
2018-11-07T04:31:44.446Z,100035.96
2018-11-07T04:34:14.955Z,100030.41
2018-11-07T04:36:43.864Z,100040.19
2018-11-07T04:39:13.305Z,100046.28
2018-11-07T04:41:42.127Z,100042.71
2018-11-07T04:44:11.003Z,100042.42
2018-11-07T04:46:40.210Z,100043.73
2018-11-07T04:49:09.056Z,100043.65
2018-11-07T04:51:37.975Z,100050.51
2018-11-07T04:54:07.190Z,100052.95
2018-11-07T04:56:41.260Z,100048.48
2018-11-07T04:59:10.242Z,100055.88
2018-11-07T05:01:39.380Z,100055.88
2018-11-07T05:04:08.256Z,100062.87
2018-11-07T05:06:37.135Z,100063.32
2018-11-07T05:09:07.679Z,100055.82
2018-11-07T05:11:36.605Z,100052.14
2018-11-07T05:14:06.579Z,100059.23
2018-11-07T05:16:35.921Z,100055.00
2018-11-07T05:19:04.896Z,100061.66
2018-11-07T05:21:33.805Z,100064.64
2018-11-07T05:24:04.334Z,100070.20
2018-11-07T05:26:33.189Z,100070.36
2018-11-07T05:29:02.199Z,100068.73
2018-11-07T05:31:31.431Z,100058.20
2018-11-07T05:34:00.299Z,100070.69
2018-11-07T05:36:32.458Z,100070.27
2018-11-07T05:39:01.747Z,100074.11
2018-11-07T05:41:30.697Z,100084.18
2018-11-07T05:43:59.818Z,100082.47
2018-11-07T05:46:30.522Z,100082.62
2018-11-07T05:48:59.497Z,100088.74
2018-11-07T05:51:28.485Z,100084.46
2018-11-07T05:53:57.763Z,100083.16
2018-11-07T05:56:26.791Z,100087.37
2018-11-07T05:58:55.675Z,100094.05
2018-11-07T06:01:24.951Z,100096.75
2018-11-07T06:03:53.903Z,100096.33
2018-11-07T06:06:22.922Z,100093.79
2018-11-07T06:08:53.286Z,100096.70
2018-11-07T06:11:22.303Z,100103.96
2018-11-07T06:13:56.423Z,100096.25
2018-11-07T06:16:30.735Z,100101.60
2018-11-07T06:18:59.619Z,100096.91
2018-11-07T06:21:28.499Z,100086.30
2018-11-07T06:23:58.400Z,100090.84
2018-11-07T06:26:27.526Z,100089.25
2018-11-07T06:28:56.484Z,100104.73
2018-11-07T06:31:25.775Z,100099.83
2018-11-07T06:33:54.862Z,100107.14
2018-11-07T06:36:23.996Z,100107.47
2018-11-07T06:38:53.267Z,100104.77
2018-11-07T06:41:22.197Z,100096.73
2018-11-07T06:43:51.141Z,100108.57
2018-11-07T06:46:20.511Z,100106.91
2018-11-07T06:48:49.459Z,100113.31
2018-11-07T06:51:18.643Z,100115.48
2018-11-07T06:53:47.897Z,100115.16
2018-11-07T06:56:16.842Z,100120.39
2018-11-07T06:58:45.733Z,100114.58
2018-11-07T07:01:15.443Z,100118.63
2018-11-07T07:03:44.469Z,100116.22
2018-11-07T07:06:13.398Z,100116.95
2018-11-07T07:08:46.023Z,100116.17
2018-11-07T07:11:15.036Z,100111.56
2018-11-07T07:13:44.105Z,100110.28
2018-11-07T07:16:13.313Z,100106.71
2018-11-07T07:18:42.337Z,100109.80
2018-11-07T07:21:11.347Z,100103.42
2018-11-07T07:23:40.624Z,100113.08
2018-11-07T07:26:09.611Z,100113.15
2018-11-07T07:28:38.684Z,100106.47
2018-11-07T07:31:07.921Z,100109.18
2018-11-07T07:33:42.529Z,100108.16
2018-11-07T07:36:11.433Z,100108.01
2018-11-07T07:38:41.151Z,100108.20
2018-11-07T07:41:10.406Z,100105.25
2018-11-07T07:43:39.560Z,100114.55
2018-11-07T07:46:08.799Z,100114.00
2018-11-07T07:48:37.720Z,100110.86
2018-11-07T07:51:06.818Z,100115.85
2018-11-07T07:53:36.086Z,100114.95
2018-11-07T07:56:05.748Z,100114.78
2018-11-07T07:58:34.704Z,100113.77
2018-11-07T08:01:04.264Z,100106.59
2018-11-07T08:03:33.440Z,100109.23
2018-11-07T08:06:04.495Z,100105.22
2018-11-07T08:08:33.801Z,100104.35
2018-11-07T08:11:02.889Z,100097.58
2018-11-07T08:13:32.081Z,100093.45
2018-11-07T08:16:02.777Z,100100.66
2018-11-07T08:18:31.745Z,100096.77
2018-11-07T08:21:00.801Z,100106.60
2018-11-07T08:23:31.083Z,100103.83
2018-11-07T08:26:00.183Z,100100.02
2018-11-07T08:28:29.255Z,100104.42
2018-11-07T08:30:58.888Z,100102.17
2018-11-07T08:33:27.812Z,100092.21
2018-11-07T08:35:56.775Z,100096.48
2018-11-07T08:38:25.764Z,100088.46
2018-11-07T08:40:54.658Z,100091.97
2018-11-07T08:43:23.863Z,100090.51
2018-11-07T08:45:52.701Z,100089.67
2018-11-07T08:48:21.920Z,100087.48
2018-11-07T08:50:50.940Z,100090.20
2018-11-07T08:53:19.852Z,100087.48
2018-11-07T08:55:49.092Z,100089.16
2018-11-07T08:58:18.190Z,100095.73
2018-11-07T09:00:47.088Z,100092.24
2018-11-07T09:03:16.404Z,100089.62
2018-11-07T09:05:45.429Z,100099.56
2018-11-07T09:08:14.462Z,100102.72
2018-11-07T09:10:43.763Z,100110.63
2018-11-07T09:13:12.590Z,100103.43
2018-11-07T09:15:41.439Z,100105.56
2018-11-07T09:18:10.845Z,100111.55
2018-11-07T09:20:39.716Z,100101.08
2018-11-07T09:23:08.693Z,100105.38
2018-11-07T09:25:37.997Z,100101.67
2018-11-07T09:28:07.056Z,100100.34
2018-11-07T09:30:36.161Z,100104.83
2018-11-07T09:33:06.960Z,100097.13
2018-11-07T09:35:35.906Z,100095.66
2018-11-07T09:38:06.865Z,100096.46
2018-11-07T09:40:36.124Z,100083.05
2018-11-07T09:43:05.219Z,100087.13
2018-11-07T09:45:34.443Z,100082.95
2018-11-07T09:48:05.944Z,100080.23
2018-11-07T09:50:34.837Z,100079.91
2018-11-07T09:53:03.876Z,100080.09
2018-11-07T09:55:33.154Z,100074.80
2018-11-07T09:58:03.694Z,100079.01
2018-11-07T10:00:32.593Z,100075.77
2018-11-07T10:03:01.798Z,100072.00
2018-11-07T10:05:30.799Z,100077.64
2018-11-07T10:07:59.745Z,100071.67
2018-11-07T10:10:28.972Z,100071.05
2018-11-07T10:12:57.905Z,100077.61
2018-11-07T10:15:26.982Z,100078.63
2018-11-07T10:17:56.419Z,100074.68
2018-11-07T10:20:25.593Z,100069.27
2018-11-07T10:22:54.494Z,100070.28
2018-11-07T10:25:23.705Z,100064.30
2018-11-07T10:27:52.958Z,100072.33
2018-11-07T10:30:22.195Z,100068.00
2018-11-07T10:32:51.710Z,100066.42
2018-11-07T10:35:20.791Z,100067.27
2018-11-07T10:37:49.817Z,100059.91
2018-11-07T10:40:21.427Z,100073.70
2018-11-07T10:42:52.354Z,100057.21
2018-11-07T10:45:21.404Z,100051.23
2018-11-07T10:47:51.285Z,100049.56
2018-11-07T10:50:21.008Z,100045.84
2018-11-07T10:52:51.506Z,100043.19
2018-11-07T10:55:21.017Z,100039.34
2018-11-07T10:57:49.988Z,100042.98
2018-11-07T11:00:24.042Z,100034.91
2018-11-07T11:02:58.234Z,100036.09
2018-11-07T11:05:27.159Z,100035.38
2018-11-07T11:07:56.070Z,100038.92
2018-11-07T11:10:25.052Z,100038.97
2018-11-07T11:12:54.053Z,100039.73
2018-11-07T11:15:23.407Z,100034.80
2018-11-07T11:17:52.454Z,100036.73
2018-11-07T11:20:21.445Z,100030.64
2018-11-07T11:22:50.768Z,100035.09
2018-11-07T11:25:19.722Z,100027.12
2018-11-07T11:27:48.816Z,100029.99
2018-11-07T11:30:18.207Z,100032.51
2018-11-07T11:32:48.207Z,100040.98
2018-11-07T11:35:17.309Z,100036.67
2018-11-07T11:37:46.721Z,100033.52
2018-11-07T11:40:16.101Z,100043.65
2018-11-07T11:42:45.560Z,100044.82
2018-11-07T11:45:15.881Z,100052.70
2018-11-07T11:47:45.503Z,100044.81
2018-11-07T11:50:20.186Z,100047.02
2018-11-07T11:52:50.021Z,100038.28
2018-11-07T11:55:19.349Z,100033.82
2018-11-07T11:57:52.170Z,100037.48
2018-11-07T12:00:21.938Z,100036.64
2018-11-07T12:02:51.008Z,100034.66
2018-11-07T12:05:20.384Z,100034.09
2018-11-07T12:07:49.575Z,100038.62
2018-11-07T12:13:32.148Z,100030.58
2018-11-07T12:16:01.001Z,100029.09
2018-11-07T12:18:29.902Z,100031.92
2018-11-07T12:21:06.182Z,100023.42
2018-11-07T12:23:34.958Z,100023.63
2018-11-07T12:26:04.560Z,100020.21
2018-11-07T12:28:34.620Z,100025.11
2018-11-07T12:31:03.708Z,100022.11
2018-11-07T12:33:32.612Z,100019.27
2018-11-07T12:36:03.469Z,100026.08
2018-11-07T12:38:32.456Z,100023.89
2018-11-07T12:41:01.801Z,100030.56
2018-11-07T12:43:30.844Z,100025.82
2018-11-07T12:48:40.633Z,100028.86
2018-11-07T12:51:09.669Z,100024.39
2018-11-07T12:53:39.012Z,100032.42
2018-11-07T12:56:07.987Z,100024.91
2018-11-07T12:58:37.012Z,100030.08
2018-11-07T13:01:06.377Z,100027.95
2018-11-07T13:03:35.251Z,100031.69
2018-11-07T13:06:07.039Z,100028.59
2018-11-07T13:08:41.915Z,100031.09
2018-11-07T13:11:11.071Z,100031.23
2018-11-07T13:13:40.160Z,100034.95
2018-11-07T13:16:10.028Z,100032.66
2018-11-07T13:18:39.014Z,100034.36
2018-11-07T13:21:08.041Z,100043.16
2018-11-07T13:23:37.059Z,100049.76
2018-11-07T13:26:07.002Z,100060.25
2018-11-07T13:28:36.483Z,100055.41
2018-11-07T13:31:05.657Z,100063.13
2018-11-07T13:33:34.699Z,100063.03
2018-11-07T13:36:04.566Z,100056.86
2018-11-07T13:38:34.143Z,100057.13
2018-11-07T13:41:04.091Z,100057.34
2018-11-07T13:43:32.963Z,100056.95
2018-11-07T13:46:04.136Z,100057.98
2018-11-07T13:48:32.941Z,100058.43
2018-11-07T13:51:02.256Z,100065.98
2018-11-07T13:53:32.546Z,100061.22
2018-11-07T13:56:06.876Z,100050.58
2018-11-07T13:58:36.046Z,100055.59
2018-11-07T14:01:05.040Z,100061.80
2018-11-07T14:03:34.117Z,100065.23
2018-11-07T14:06:05.089Z,100070.32
2018-11-07T14:08:34.058Z,100073.60
2018-11-07T14:11:03.310Z,100074.77
2018-11-07T14:13:32.622Z,100072.48
2018-11-07T14:16:02.523Z,100078.92
2018-11-07T14:18:31.419Z,100084.28
2018-11-07T14:21:00.962Z,100085.24
2018-11-07T14:23:29.944Z,100085.78
2018-11-07T14:25:58.972Z,100092.11
2018-11-07T14:28:28.275Z,100091.51
2018-11-07T14:30:58.228Z,100095.67
2018-11-07T14:33:27.462Z,100099.05
2018-11-07T14:35:59.388Z,100098.68
2018-11-07T14:38:29.447Z,100102.94
2018-11-07T14:40:58.843Z,100106.08
2018-11-07T14:43:38.604Z,100105.27
2018-11-07T14:46:07.404Z,100100.03
2018-11-07T14:48:36.242Z,100099.80
2018-11-07T14:51:05.377Z,100100.59
2018-11-07T14:53:46.747Z,100097.95
2018-11-07T14:56:15.261Z,100110.03
2018-11-07T14:58:54.590Z,100107.29
2018-11-07T15:01:24.368Z,100105.05
2018-11-07T15:03:53.650Z,100115.84
2018-11-07T15:06:37.153Z,100114.31
2018-11-07T15:09:18.748Z,100115.88
2018-11-07T15:11:58.694Z,100116.01
2018-11-07T15:14:28.011Z,100120.09
2018-11-07T15:16:56.843Z,100125.08
2018-11-07T15:19:26.229Z,100132.90
2018-11-07T15:21:55.354Z,100135.28
2018-11-07T15:24:25.295Z,100140.48
2018-11-07T15:26:54.167Z,100141.45
2018-11-07T15:29:23.105Z,100144.48
2018-11-07T15:31:52.496Z,100149.42
2018-11-07T15:34:21.394Z,100143.06
2018-11-07T15:36:50.495Z,100150.77
2018-11-07T15:39:19.318Z,100145.49
2018-11-07T15:41:48.584Z,100138.63
2018-11-07T15:44:17.615Z,100138.77
2018-11-07T15:46:47.111Z,100142.63
2018-11-07T15:49:16.289Z,100145.86
2018-11-07T15:51:45.188Z,100133.48
2018-11-07T15:54:15.056Z,100131.31
2018-11-07T15:56:44.413Z,100137.20
2018-11-07T15:59:13.525Z,100136.11
2018-11-07T16:01:48.241Z,100143.94
2018-11-07T16:04:17.713Z,100140.22
2018-11-07T16:06:46.870Z,100151.89
2018-11-07T16:09:15.776Z,100169.45
2018-11-07T16:11:45.101Z,100174.62
2018-11-07T16:14:14.042Z,100178.00
2018-11-07T16:16:42.943Z,100185.87
2018-11-07T16:19:12.406Z,100183.23
2018-11-07T16:21:48.400Z,100189.97
2018-11-07T16:24:17.577Z,100192.74
2018-11-07T16:26:46.858Z,100196.21
2018-11-07T16:29:15.898Z,100202.83
2018-11-07T16:31:44.939Z,100207.17
2018-11-07T16:34:14.188Z,100216.31
2018-11-07T16:39:26.671Z,100227.37
2018-11-07T16:41:56.360Z,100224.59
2018-11-07T16:44:26.135Z,100232.88
2018-11-07T16:46:55.511Z,100243.20
2018-11-07T16:49:24.423Z,100242.59
2018-11-07T16:51:53.374Z,100248.69
2018-11-07T16:54:23.509Z,100255.11
2018-11-07T16:56:52.526Z,100249.29
2018-11-07T16:59:21.604Z,100261.92
2018-11-07T17:01:51.362Z,100268.92
2018-11-07T17:04:20.572Z,100279.59
2018-11-07T17:06:49.843Z,100282.83
2018-11-07T17:09:18.922Z,100288.38
2018-11-07T17:11:48.232Z,100295.13
2018-11-07T17:14:17.712Z,100296.79
2018-11-07T17:16:46.762Z,100303.67
2018-11-07T17:19:15.910Z,100303.70
2018-11-07T17:21:45.249Z,100304.29
2018-11-07T17:24:14.361Z,100306.34
2018-11-07T17:26:44.067Z,100304.64
2018-11-07T17:29:13.534Z,100299.84
2018-11-07T17:31:42.742Z,100299.70
2018-11-07T17:34:11.688Z,100310.29
2018-11-07T17:36:40.757Z,100316.26
2018-11-07T17:39:09.757Z,100316.17
2018-11-07T17:41:39.528Z,100330.33
2018-11-07T17:44:08.755Z,100324.78
2018-11-07T17:46:37.905Z,100319.42
2018-11-07T17:49:07.000Z,100321.34
2018-11-07T17:51:36.449Z,100327.83
2018-11-07T17:54:07.633Z,100331.66
2018-11-07T17:56:43.735Z,100337.71
2018-11-07T17:59:12.931Z,100345.34
2018-11-07T18:01:48.602Z,100344.70
2018-11-07T18:04:17.675Z,100348.87
2018-11-07T18:06:46.986Z,100361.34
2018-11-07T18:09:16.111Z,100361.54
2018-11-07T18:11:45.629Z,100359.31
2018-11-07T18:14:16.165Z,100358.08
2018-11-07T18:16:45.622Z,100366.95
2018-11-07T18:19:15.363Z,100353.67
2018-11-07T18:21:45.852Z,100350.87
2018-11-07T18:24:15.600Z,100354.67
2018-11-07T18:26:45.279Z,100364.31
2018-11-07T18:29:15.054Z,100361.83
2018-11-07T18:31:47.419Z,100365.44
2018-11-07T18:34:16.922Z,100367.86
2018-11-07T18:36:46.624Z,100373.86
2018-11-07T18:39:16.621Z,100375.41
2018-11-07T18:41:46.296Z,100378.64
2018-11-07T18:44:16.766Z,100375.91
2018-11-07T18:46:46.431Z,100370.15
2018-11-07T18:49:15.862Z,100371.00
2018-11-07T18:51:45.416Z,100375.70
2018-11-07T18:54:16.107Z,100380.61
2018-11-07T18:56:45.675Z,100383.37
2018-11-07T18:59:15.585Z,100396.20
2018-11-07T19:01:45.124Z,100395.86
2018-11-07T19:04:15.795Z,100397.91
2018-11-07T19:06:46.433Z,100400.30
2018-11-07T19:09:19.213Z,100402.34
2018-11-07T19:11:48.708Z,100407.02
2018-11-07T19:14:18.957Z,100401.23
2018-11-07T19:16:48.516Z,100403.05
2018-11-07T19:19:18.761Z,100403.13
2018-11-07T19:21:48.421Z,100407.69
2018-11-07T19:24:18.079Z,100409.01
2018-11-07T19:26:48.285Z,100410.25
2018-11-07T19:29:18.846Z,100422.50
2018-11-07T19:31:48.537Z,100422.50
2018-11-07T19:34:18.537Z,100422.30
2018-11-07T19:36:48.908Z,100421.68
2018-11-07T19:39:19.305Z,100417.91
2018-11-07T19:41:49.162Z,100416.39
2018-11-07T19:44:19.034Z,100425.53
2018-11-07T19:46:49.248Z,100429.34
2018-11-07T19:49:19.944Z,100438.08
2018-11-07T19:51:54.919Z,100446.52
2018-11-07T19:54:25.088Z,100446.35
2018-11-07T19:56:54.795Z,100446.82
2018-11-07T19:59:25.523Z,100453.81
2018-11-07T20:01:54.973Z,100455.30
2018-11-07T20:04:25.038Z,100462.67
2018-11-07T20:06:55.032Z,100459.02
2018-11-07T20:09:24.967Z,100459.38
2018-11-07T20:11:59.303Z,100463.34
2018-11-07T20:14:29.199Z,100473.33
2018-11-07T20:16:59.065Z,100480.87
2018-11-07T20:22:13.295Z,100475.48
2018-11-07T20:24:43.289Z,100484.16
2018-11-07T20:27:13.080Z,100489.83
2018-11-07T20:29:42.762Z,100499.54
2018-11-07T20:32:13.933Z,100496.09
2018-11-07T20:34:43.613Z,100499.67
2018-11-07T20:37:13.067Z,100504.20
2018-11-07T20:39:43.015Z,100502.25
2018-11-07T20:42:12.747Z,100501.39
2018-11-07T20:44:43.095Z,100500.23
2018-11-07T20:47:13.601Z,100505.05
2018-11-07T20:49:43.164Z,100505.41
2018-11-07T20:52:12.847Z,100499.37
2018-11-07T20:54:49.681Z,100504.38
2018-11-07T20:57:25.241Z,100501.20
2018-11-07T21:00:00.113Z,100500.98
2018-11-07T21:02:36.287Z,100500.88
2018-11-07T21:05:08.811Z,100496.45
2018-11-07T21:07:38.777Z,100501.79
2018-11-07T21:10:11.283Z,100500.00
2018-11-07T21:12:47.091Z,100492.47
2018-11-07T21:15:17.567Z,100501.22
2018-11-07T21:17:47.554Z,100506.25
2018-11-07T21:20:17.141Z,100513.67
2018-11-07T21:22:46.852Z,100518.60
2018-11-07T21:25:16.765Z,100526.41
2018-11-07T21:27:46.325Z,100521.59
2018-11-07T21:30:19.728Z,100529.63
2018-11-07T21:32:49.524Z,100530.20
2018-11-07T21:35:23.754Z,100527.67
2018-11-07T21:37:53.130Z,100530.09
2018-11-07T21:40:23.134Z,100535.95
2018-11-07T21:42:58.131Z,100525.89
2018-11-07T21:45:27.719Z,100535.70
2018-11-07T21:48:03.790Z,100536.27
2018-11-07T21:50:32.654Z,100537.14
2018-11-07T21:53:01.513Z,100532.15
2018-11-07T21:55:30.784Z,100534.22
2018-11-07T21:57:59.759Z,100539.96
2018-11-07T22:00:29.858Z,100545.64
2018-11-07T22:03:02.307Z,100538.19
2018-11-07T22:05:37.460Z,100544.14
2018-11-07T22:08:07.210Z,100550.34
2018-11-07T22:10:36.136Z,100552.34
2018-11-07T22:13:05.771Z,100556.41
2018-11-07T22:15:34.949Z,100561.59
2018-11-07T22:18:05.018Z,100560.09
2018-11-07T22:20:36.748Z,100563.12
2018-11-07T22:23:06.735Z,100561.52
2018-11-07T22:25:35.689Z,100567.44
2018-11-07T22:28:06.800Z,100565.94
2018-11-07T22:30:37.128Z,100572.06
2018-11-07T22:33:06.561Z,100575.34
2018-11-07T22:35:35.499Z,100576.95
2018-11-07T22:38:06.367Z,100575.09
2018-11-07T22:40:35.436Z,100575.84
2018-11-07T22:43:05.023Z,100583.47
2018-11-07T22:45:33.986Z,100584.03
2018-11-07T22:48:03.743Z,100583.22
2018-11-07T22:50:38.994Z,100588.09
2018-11-07T22:53:13.489Z,100590.54
2018-11-07T22:55:42.692Z,100594.97
2018-11-07T22:58:11.536Z,100593.86
2018-11-07T23:00:45.557Z,100586.92
2018-11-07T23:03:14.851Z,100597.12
2018-11-07T23:05:43.430Z,100588.47
2018-11-07T23:08:12.249Z,100583.75
2018-11-07T23:13:34.691Z,100591.55
2018-11-07T23:16:06.169Z,100598.34
2018-11-07T23:18:35.857Z,100602.85
2018-11-07T23:21:05.168Z,100597.27
2018-11-07T23:23:33.804Z,100603.80
2018-11-07T23:26:08.345Z,100607.17
2018-11-07T23:28:37.309Z,100607.63
2018-11-07T23:31:05.996Z,100611.89
2018-11-07T23:33:34.548Z,100609.61
2018-11-07T23:36:04.792Z,100611.91
2018-11-07T23:38:34.191Z,100605.85
2018-11-07T23:41:02.903Z,100610.01
2018-11-07T23:43:31.778Z,100612.72
2018-11-07T23:46:00.298Z,100614.04
2018-11-07T23:48:29.608Z,100611.77
2018-11-07T23:51:04.951Z,100617.53
2018-11-07T23:53:35.225Z,100626.17
2018-11-07T23:56:06.288Z,100634.75
2018-11-07T23:58:34.837Z,100631.62
